createdAt,value
2022-11-04T00:05:00.017Z,12.10
2022-11-04T00:10:01.666Z,11.80
2022-11-04T00:15:23.451Z,13.60
2022-11-04T00:20:44.026Z,11.70
2022-11-04T00:31:26.800Z,11.70
2022-11-04T00:36:28.495Z,14.00
2022-11-04T00:41:30.696Z,11.20
2022-11-04T00:46:34.555Z,11.60
2022-11-04T00:51:36.230Z,11.50
2022-11-04T00:56:38.582Z,12.00
2022-11-04T01:01:40.773Z,11.60
2022-11-04T01:06:42.542Z,11.70
2022-11-04T01:11:44.246Z,11.70
2022-11-04T01:21:51.634Z,11.60
2022-11-04T01:26:53.275Z,12.40
2022-11-04T01:31:54.920Z,12.50
2022-11-04T01:41:58.769Z,11.80
2022-11-04T01:47:00.527Z,11.80
2022-11-04T01:52:09.408Z,11.60
2022-11-04T01:57:16.541Z,11.50
2022-11-04T02:02:18.381Z,11.50
2022-11-04T02:12:41.562Z,11.30
2022-11-04T02:18:18.354Z,11.40
2022-11-04T02:23:46.166Z,11.40
2022-11-04T02:29:25.647Z,11.40
2022-11-04T02:34:43.319Z,11.30
2022-11-04T02:40:01.138Z,11.30
2022-11-04T02:45:30.379Z,11.30
2022-11-04T02:50:54.288Z,11.40
2022-11-04T02:55:58.493Z,11.40
2022-11-04T03:01:02.443Z,13.90
2022-11-04T03:06:06.284Z,11.50
2022-11-04T03:11:17.117Z,11.50
2022-11-04T03:16:28.434Z,11.40
2022-11-04T03:21:34.049Z,11.40
2022-11-04T03:26:44.745Z,14.60
2022-11-04T03:32:05.043Z,11.40
2022-11-04T03:37:06.819Z,11.50
2022-11-04T03:42:20.438Z,11.40
2022-11-04T03:47:25.499Z,11.40
2022-11-04T03:52:27.304Z,13.80
2022-11-04T03:57:55.910Z,11.60
2022-11-04T04:03:16.885Z,11.10
2022-11-04T04:08:37.475Z,14.00
2022-11-04T04:13:44.643Z,10.90
2022-11-04T04:18:58.853Z,11.00
2022-11-04T04:24:24.622Z,10.90
2022-11-04T04:29:29.293Z,11.00
2022-11-04T04:34:33.404Z,11.00
2022-11-04T04:40:02.148Z,12.40
2022-11-04T04:45:06.115Z,10.90
2022-11-04T04:50:09.122Z,10.90
2022-11-04T04:55:12.183Z,10.80
2022-11-04T05:00:19.884Z,13.50
2022-11-04T05:10:23.916Z,10.90
2022-11-04T05:15:26.928Z,10.80
2022-11-04T05:20:34.153Z,11.80
2022-11-04T05:25:35.926Z,13.10
2022-11-04T05:40:42.135Z,10.60
2022-11-04T06:05:52.256Z,10.40
2022-11-04T06:21:22.472Z,10.30
2022-11-04T06:26:28.222Z,10.30
2022-11-04T06:46:39.623Z,10.20
2022-11-04T06:51:41.571Z,10.10
2022-11-04T06:56:43.640Z,10.50
2022-11-04T07:01:46.361Z,10.00
2022-11-04T07:06:48.165Z,10.00
2022-11-04T07:11:49.978Z,10.20
2022-11-04T07:21:53.713Z,10.20
2022-11-04T07:26:56.246Z,10.20
2022-11-04T07:31:57.942Z,10.00
2022-11-04T07:36:59.672Z,11.60
2022-11-04T07:42:01.425Z,10.10
2022-11-04T07:47:03.195Z,10.30
2022-11-04T07:52:05.112Z,10.20
2022-11-04T07:57:06.828Z,10.20
2022-11-04T08:02:10.849Z,10.20
2022-11-04T08:07:12.577Z,10.20
2022-11-04T08:12:14.362Z,10.20
2022-11-04T08:17:16.482Z,10.40
2022-11-04T08:22:18.504Z,11.90
2022-11-04T08:27:20.245Z,10.80
2022-11-04T08:32:22.031Z,10.80
2022-11-04T08:37:23.822Z,12.30
2022-11-04T08:42:26.210Z,10.80
2022-11-04T08:47:27.978Z,11.00
2022-11-04T08:52:29.696Z,10.90
2022-11-04T09:02:33.778Z,11.20
2022-11-04T09:07:37.470Z,12.00
2022-11-04T09:27:48.135Z,11.80
2022-11-04T09:32:52.739Z,12.50
2022-11-04T09:43:02.640Z,12.30
2022-11-04T09:48:08.809Z,12.60
2022-11-04T09:53:47.463Z,12.50
2022-11-04T09:58:50.452Z,12.70
2022-11-04T10:04:10.919Z,13.00
2022-11-04T10:09:27.216Z,13.10
2022-11-04T10:14:54.204Z,13.20
2022-11-04T10:20:52.341Z,13.30
2022-11-04T10:26:03.415Z,13.50
2022-11-04T10:31:05.554Z,13.60
2022-11-04T10:36:09.593Z,13.40
2022-11-04T10:41:29.826Z,13.50
2022-11-04T10:46:44.521Z,13.70
2022-11-04T10:51:46.226Z,13.60
2022-11-04T10:56:51.569Z,13.50
2022-11-04T11:02:06.169Z,13.50
2022-11-04T11:07:13.343Z,13.40
2022-11-04T11:12:44.635Z,14.10
2022-11-04T11:17:39.430Z,14.20
2022-11-04T11:22:43.582Z,14.10
2022-11-04T11:27:49.878Z,14.10
2022-11-04T11:33:17.677Z,15.40
2022-11-04T11:38:23.761Z,15.60
2022-11-04T11:43:29.800Z,14.90
2022-11-04T11:48:41.550Z,14.90
2022-11-04T11:54:16.161Z,15.30
2022-11-04T12:10:50.310Z,14.40
2022-11-04T12:16:06.466Z,13.80
2022-11-04T12:21:24.115Z,13.90
2022-11-04T12:26:50.463Z,14.10
2022-11-04T12:32:01.234Z,13.90
2022-11-04T12:37:44.130Z,13.90
2022-11-04T12:43:04.564Z,13.70
2022-11-04T12:48:33.993Z,13.70
2022-11-04T12:53:53.753Z,13.60
2022-11-04T12:59:22.909Z,13.40
2022-11-04T13:04:34.174Z,13.40
2022-11-04T13:09:45.219Z,13.50
2022-11-04T13:14:48.604Z,13.40
2022-11-04T13:19:53.640Z,13.40
2022-11-04T13:25:06.458Z,13.70
2022-11-04T13:30:19.486Z,13.70
2022-11-04T13:35:49.075Z,14.00
2022-11-04T13:40:59.653Z,14.20
2022-11-04T13:46:01.717Z,14.20
2022-11-04T13:51:10.432Z,14.20
2022-11-04T13:56:37.104Z,13.90
2022-11-04T14:01:38.808Z,13.80
2022-11-04T14:07:03.666Z,13.70
2022-11-04T14:12:11.634Z,13.90
2022-11-04T14:17:35.242Z,13.70
2022-11-04T14:22:50.972Z,13.60
2022-11-04T14:28:09.127Z,14.00
2022-11-04T14:33:51.478Z,14.00
2022-11-04T14:39:21.456Z,13.90
2022-11-04T14:44:41.973Z,13.70
2022-11-04T14:49:52.794Z,13.60
2022-11-04T14:55:05.565Z,13.30
2022-11-04T15:00:36.947Z,13.30
2022-11-04T15:05:40.539Z,13.10
2022-11-04T15:10:42.221Z,13.40
2022-11-04T15:15:45.336Z,12.80
2022-11-04T15:20:52.445Z,12.90
2022-11-04T15:25:55.702Z,12.80
2022-11-04T15:31:09.065Z,13.30
2022-11-04T15:36:16.098Z,12.50
2022-11-04T15:41:40.592Z,12.30
2022-11-04T15:46:48.942Z,13.20
2022-11-04T15:51:54.111Z,12.10
2022-11-04T15:56:59.293Z,12.20
2022-11-04T16:02:03.792Z,12.00
2022-11-04T16:07:11.701Z,12.60
2022-11-04T16:12:27.014Z,11.60
2022-11-04T16:17:42.978Z,11.60
2022-11-04T16:22:45.282Z,11.50
2022-11-04T16:32:52.813Z,11.50
2022-11-04T16:37:58.713Z,11.30
2022-11-04T16:43:00.414Z,13.60
2022-11-04T16:48:02.515Z,11.30
2022-11-04T16:53:04.208Z,12.20
2022-11-04T16:58:06.187Z,11.40
2022-11-04T17:03:22.805Z,11.00
2022-11-04T17:08:25.464Z,10.80
2022-11-04T17:13:30.831Z,11.60
2022-11-04T17:18:35.295Z,12.30
2022-11-04T17:28:39.695Z,10.70
2022-11-04T17:38:43.818Z,10.60
2022-11-04T17:49:05.464Z,10.50
2022-11-04T17:54:07.371Z,10.60
2022-11-04T17:59:10.809Z,11.50
2022-11-04T18:04:14.702Z,11.20
2022-11-04T18:09:17.988Z,8.00
2022-11-04T18:14:19.698Z,10.60
2022-11-04T18:19:23.365Z,10.50
2022-11-04T18:24:25.152Z,11.60
2022-11-04T18:29:27.506Z,13.20
2022-11-04T18:44:33.484Z,10.50
2022-11-04T18:54:37.361Z,11.70
2022-11-04T18:59:39.101Z,12.10
2022-11-04T19:04:40.837Z,10.50
2022-11-04T19:09:47.807Z,13.00
2022-11-04T19:14:49.853Z,10.60
2022-11-04T19:19:51.608Z,10.50
2022-11-04T19:24:53.671Z,10.60
2022-11-04T19:29:55.422Z,10.60
2022-11-04T19:34:57.189Z,11.50
2022-11-04T19:39:58.965Z,12.00
2022-11-04T19:45:00.715Z,12.50
2022-11-04T19:50:03.070Z,10.60
2022-11-04T19:55:05.050Z,10.50
2022-11-04T20:00:07.846Z,10.40
2022-11-04T20:05:10.317Z,10.40
2022-11-04T20:10:12.033Z,11.80
2022-11-04T20:15:13.718Z,10.20
2022-11-04T20:20:15.450Z,10.20
2022-11-04T20:25:17.162Z,10.20
2022-11-04T20:30:20.184Z,10.20
2022-11-04T20:35:21.907Z,10.30
2022-11-04T20:40:23.914Z,10.20
2022-11-04T20:45:25.621Z,10.40
2022-11-04T20:50:27.371Z,10.10
2022-11-04T20:55:29.245Z,10.00
2022-11-04T21:00:31.174Z,10.10
2022-11-04T21:05:34.571Z,10.10
2022-11-04T21:10:37.538Z,11.60
2022-11-04T21:15:42.190Z,10.20
2022-11-04T21:20:44.165Z,11.10
2022-11-04T21:25:50.223Z,10.20
2022-11-04T21:30:53.652Z,10.20
2022-11-04T21:35:55.280Z,10.00
2022-11-04T21:41:05.128Z,11.70
2022-11-04T21:46:09.444Z,10.10
2022-11-04T21:51:19.680Z,10.00
2022-11-04T21:56:26.936Z,10.10
2022-11-04T22:01:30.291Z,11.50
2022-11-04T22:06:35.203Z,10.20
2022-11-04T22:11:39.336Z,12.00
2022-11-04T22:16:41.134Z,10.20
2022-11-04T22:21:45.052Z,10.20
2022-11-04T22:26:47.836Z,10.20
2022-11-04T22:31:49.647Z,10.20
2022-11-04T22:36:51.500Z,10.10
2022-11-04T22:41:53.157Z,10.20
2022-11-04T22:46:55.027Z,10.20
2022-11-04T22:51:56.733Z,10.30
2022-11-04T22:56:58.385Z,12.60
2022-11-04T23:02:00.162Z,10.20
2022-11-04T23:07:02.008Z,10.70
2022-11-04T23:12:22.224Z,10.20
2022-11-04T23:17:42.858Z,10.20
2022-11-04T23:23:03.024Z,10.20
2022-11-04T23:28:23.356Z,11.20
2022-11-04T23:33:45.233Z,10.70
2022-11-04T23:38:50.292Z,10.20
2022-11-04T23:43:52.293Z,10.60
2022-11-04T23:49:12.528Z,13.00
2022-11-04T23:59:53.530Z,10.10
